Time;durP1;ratioP1;P1;durP2;ratioP2;P2;SDS_P1;SDS_P2;PMS_P1;PMS_P2;Temp;Humidity;BMP_temperature;BMP_pressure;BME280_temperature;BME280_humidity;BME280_pressure;Samples;Min_cycle;Max_cycle;Signal;HPM_P1;HPM_P2
2023/04/25 00:01:23;;;;;;;18.60;5.90;;;8.80;99.90;;;;;;6186166;23;20164;-77
2023/04/25 00:03:51;;;;;;;26.80;8.25;;;8.90;99.90;;;;;;6185831;23;20192;-75
2023/04/25 00:06:18;;;;;;;26.67;7.53;;;8.90;99.90;;;;;;6186966;23;20165;-74
2023/04/25 00:08:45;;;;;;;18.25;7.63;;;9.00;99.90;;;;;;6187185;23;20197;-76
2023/04/25 00:11:12;;;;;;;20.77;7.90;;;9.00;99.90;;;;;;6186239;23;20203;-77
2023/04/25 00:13:41;;;;;;;24.92;8.43;;;8.90;99.90;;;;;;6186011;23;20271;-73
2023/04/25 00:16:10;;;;;;;21.35;9.00;;;8.90;99.90;;;;;;6186588;23;20175;-75
2023/04/25 00:18:37;;;;;;;36.13;8.85;;;8.90;99.90;;;;;;6186183;23;20566;-76
2023/04/25 00:21:06;;;;;;;23.63;6.50;;;8.90;99.90;;;;;;6185762;23;20196;-76
2023/04/25 00:23:36;;;;;;;21.30;7.82;;;8.90;99.90;;;;;;6186469;23;20218;-77
2023/04/25 00:26:03;;;;;;;21.50;7.75;;;8.90;99.90;;;;;;6185167;23;20489;-76
2023/04/25 00:28:30;;;;;;;18.13;5.82;;;8.90;99.90;;;;;;6185669;23;20231;-73
2023/04/25 00:30:57;;;;;;;23.35;7.32;;;8.90;99.90;;;;;;6185953;23;20192;-75
2023/04/25 00:33:25;;;;;;;26.60;7.07;;;8.80;99.90;;;;;;6186519;23;20223;-75
2023/04/25 00:35:52;;;;;;;15.02;6.38;;;8.90;99.90;;;;;;6186039;23;20239;-77
2023/04/25 00:38:19;;;;;;;21.45;9.93;;;8.90;99.90;;;;;;6186283;23;20203;-75
2023/04/25 00:40:46;;;;;;;19.13;6.43;;;8.80;99.90;;;;;;6185822;23;20168;-74
2023/04/25 00:43:12;;;;;;;23.23;7.10;;;8.80;99.90;;;;;;6186048;23;20165;-76
2023/04/25 00:45:40;;;;;;;21.63;6.00;;;8.80;99.90;;;;;;6186484;23;20264;-75
2023/04/25 00:48:07;;;;;;;23.77;5.88;;;8.70;99.90;;;;;;6186512;23;20167;-76
2023/04/25 00:50:37;;;;;;;21.50;6.30;;;8.80;99.90;;;;;;6185752;23;20243;-76
2023/04/25 00:53:04;;;;;;;25.23;7.50;;;8.70;99.90;;;;;;6186141;23;20180;-75
2023/04/25 00:55:32;;;;;;;26.60;8.55;;;8.70;99.90;;;;;;6189300;23;20239;-74
2023/04/25 00:58:00;;;;;;;26.35;6.18;;;8.70;99.90;;;;;;6191642;23;20164;-76
2023/04/25 01:00:27;;;;;;;20.40;5.97;;;8.70;99.90;;;;;;6195156;23;20207;-77
2023/04/25 01:02:54;;;;;;;26.63;7.65;;;8.70;99.90;;;;;;6198856;23;20160;-74
2023/04/25 01:05:21;;;;;;;23.85;5.50;;;8.70;99.90;;;;;;6201270;23;20165;-74
2023/04/25 01:07:49;;;;;;;26.60;7.03;;;8.60;99.90;;;;;;6198485;23;20196;-75
2023/04/25 01:10:16;;;;;;;28.00;6.82;;;8.50;99.90;;;;;;6194230;23;20284;-77
2023/04/25 01:12:43;;;;;;;14.10;4.72;;;8.50;99.90;;;;;;6187455;23;20259;-73
2023/04/25 01:15:11;;;;;;;29.05;5.75;;;8.50;99.90;;;;;;6186303;23;20179;-76
2023/04/25 01:17:39;;;;;;;22.73;7.20;;;8.40;99.90;;;;;;6187008;23;20172;-77
2023/04/25 01:20:09;;;;;;;18.52;5.60;;;8.40;99.90;;;;;;6186071;23;20282;-75
2023/04/25 01:22:37;;;;;;;30.92;6.95;;;8.40;99.90;;;;;;6186063;23;20615;-76
2023/04/25 01:25:05;;;;;;;22.92;6.25;;;8.40;99.90;;;;;;6185920;23;20168;-76
2023/04/25 01:27:33;;;;;;;23.63;6.30;;;8.40;99.90;;;;;;6186096;23;20567;-74
2023/04/25 01:30:01;;;;;;;22.60;7.40;;;8.40;99.90;;;;;;6185276;23;20227;-76
2023/04/25 01:32:28;;;;;;;26.15;6.43;;;8.40;99.90;;;;;;6185869;23;20283;-76
2023/04/25 01:34:54;;;;;;;31.13;6.75;;;8.30;99.90;;;;;;6185731;23;20170;-74
2023/04/25 01:37:22;;;;;;;44.42;7.75;;;8.30;99.90;;;;;;6185316;23;20608;-75
2023/04/25 01:39:50;;;;;;;18.25;6.90;;;8.30;99.90;;;;;;6185115;23;20262;-76
2023/04/25 01:42:17;;;;;;;26.15;6.50;;;8.40;99.90;;;;;;6187190;23;20184;-77
2023/04/25 01:44:44;;;;;;;24.25;7.50;;;8.30;99.90;;;;;;6186102;23;20239;-77
2023/04/25 01:47:11;;;;;;;26.42;7.43;;;8.30;99.90;;;;;;6186294;23;20168;-77
2023/04/25 01:49:38;;;;;;;20.33;5.65;;;8.30;99.90;;;;;;6184230;23;20200;-77
2023/04/25 01:52:05;;;;;;;20.00;5.25;;;8.40;99.90;;;;;;6186436;23;20218;-75
2023/04/25 01:54:32;;;;;;;19.70;5.30;;;8.40;99.90;;;;;;6187515;23;20199;-75
2023/04/25 01:57:01;;;;;;;23.48;7.07;;;8.40;99.90;;;;;;6190157;23;20227;-74
2023/04/25 01:59:28;;;;;;;19.92;6.10;;;8.40;99.90;;;;;;6192167;23;20195;-75
2023/04/25 02:01:55;;;;;;;20.88;5.00;;;8.40;99.90;;;;;;6197572;23;20171;-75
2023/04/25 02:04:22;;;;;;;19.80;7.05;;;8.40;99.90;;;;;;6198020;23;20167;-77
2023/04/25 02:06:49;;;;;;;18.02;4.60;;;8.30;99.90;;;;;;6198572;23;20183;-76
2023/04/25 02:09:15;;;;;;;16.52;5.10;;;8.30;99.90;;;;;;6188194;23;20224;-75
2023/04/25 02:11:42;;;;;;;16.67;5.15;;;8.30;99.90;;;;;;6185382;23;20168;-76
2023/04/25 02:14:11;;;;;;;14.75;4.53;;;8.40;99.90;;;;;;6185749;23;20184;-76
2023/04/25 02:16:38;;;;;;;21.35;6.88;;;8.40;99.90;;;;;;6185036;23;20203;-75
2023/04/25 02:19:05;;;;;;;14.80;5.22;;;8.30;99.90;;;;;;6185593;23;20530;-78
2023/04/25 02:21:32;;;;;;;17.00;5.57;;;8.30;99.90;;;;;;6184854;23;20188;-75
2023/04/25 02:23:59;;;;;;;25.70;5.72;;;8.30;99.90;;;;;;6185292;23;20160;-78
2023/04/25 02:26:26;;;;;;;17.85;6.43;;;8.30;99.90;;;;;;6185523;23;20168;-78
2023/04/25 02:28:53;;;;;;;29.67;6.05;;;8.30;99.90;;;;;;6185844;23;20204;-75
2023/04/25 02:31:22;;;;;;;15.82;5.15;;;8.30;99.90;;;;;;6186143;23;20175;-75
2023/04/25 02:33:49;;;;;;;17.77;5.97;;;8.10;99.90;;;;;;6184861;23;20271;-75
2023/04/25 02:36:16;;;;;;;15.68;5.85;;;8.00;99.90;;;;;;6185390;23;20637;-74
2023/04/25 02:38:42;;;;;;;16.73;7.00;;;8.00;99.90;;;;;;6185001;23;20238;-76
2023/04/25 02:41:09;;;;;;;18.95;6.00;;;7.90;99.90;;;;;;6185135;23;20166;-75
2023/04/25 02:43:37;;;;;;;31.23;8.32;;;7.90;99.90;;;;;;6185359;23;20494;-77
2023/04/25 02:46:04;;;;;;;13.75;5.13;;;7.80;99.90;;;;;;6185342;23;20200;-78
2023/04/25 02:48:32;;;;;;;20.75;4.93;;;7.80;99.90;;;;;;6185301;23;20594;-75
2023/04/25 02:50:59;;;;;;;14.02;5.25;;;7.80;99.90;;;;;;6184916;23;20606;-77
2023/04/25 02:53:26;;;;;;;20.40;5.25;;;7.70;99.90;;;;;;6185418;23;20563;-76
2023/04/25 02:55:53;;;;;;;14.73;4.70;;;7.70;99.90;;;;;;6185821;23;20246;-76
2023/04/25 02:58:19;;;;;;;21.40;5.65;;;7.60;99.90;;;;;;6185569;23;20172;-75
2023/04/25 03:00:46;;;;;;;13.35;4.63;;;7.70;99.90;;;;;;6185406;23;20202;-74
2023/04/25 03:03:14;;;;;;;21.17;4.68;;;7.60;99.90;;;;;;6185811;23;20203;-73
2023/04/25 03:05:43;;;;;;;18.92;4.97;;;7.60;99.90;;;;;;6185809;23;20501;-74
2023/04/25 03:08:10;;;;;;;12.52;4.57;;;7.60;99.90;;;;;;6184871;23;20174;-75
2023/04/25 03:10:36;;;;;;;18.42;5.15;;;7.60;99.90;;;;;;6184642;23;20199;-75
2023/04/25 03:13:03;;;;;;;17.27;4.85;;;7.60;99.90;;;;;;6184964;23;20227;-74
2023/04/25 03:15:31;;;;;;;11.95;4.88;;;7.70;99.90;;;;;;6185782;23;20206;-76
2023/04/25 03:17:58;;;;;;;19.35;4.53;;;7.70;99.90;;;;;;6186549;23;20163;-73
2023/04/25 03:20:25;;;;;;;16.73;4.97;;;7.70;99.90;;;;;;6184446;23;20208;-74
2023/04/25 03:22:53;;;;;;;24.42;5.55;;;7.80;99.90;;;;;;6186745;23;20196;-75
2023/04/25 03:25:20;;;;;;;15.18;5.82;;;7.70;99.90;;;;;;6186386;23;20251;-75
2023/04/25 03:27:47;;;;;;;18.90;5.22;;;7.70;99.90;;;;;;6185077;23;20192;-74
2023/04/25 03:30:14;;;;;;;19.85;4.57;;;7.70;99.90;;;;;;6184641;23;20294;-75
2023/04/25 03:32:41;;;;;;;17.35;4.72;;;7.70;99.90;;;;;;6185357;23;20266;-74
2023/04/25 03:35:09;;;;;;;17.67;5.63;;;7.70;99.90;;;;;;6185490;23;20202;-75
2023/04/25 03:37:35;;;;;;;18.40;5.38;;;7.70;99.90;;;;;;6185053;23;20549;-75
2023/04/25 03:40:05;;;;;;;15.20;5.65;;;7.70;99.90;;;;;;6185773;23;20590;-75
2023/04/25 03:42:32;;;;;;;12.55;5.20;;;7.60;99.90;;;;;;6186835;23;20179;-76
2023/04/25 03:44:59;;;;;;;11.85;5.50;;;7.50;99.90;;;;;;6187054;23;20218;-74
2023/04/25 03:47:26;;;;;;;13.63;4.93;;;7.70;99.90;;;;;;6187026;23;20194;-75
2023/04/25 03:49:53;;;;;;;30.30;6.00;;;7.70;99.90;;;;;;6187751;23;20293;-77
2023/04/25 03:52:20;;;;;;;24.08;5.05;;;7.70;99.90;;;;;;6187608;23;20199;-76
2023/04/25 03:54:47;;;;;;;17.98;3.55;;;7.60;99.90;;;;;;6186484;23;20218;-76
2023/04/25 03:57:15;;;;;;;14.00;5.20;;;7.60;99.90;;;;;;6186887;23;20246;-74
2023/04/25 03:59:42;;;;;;;14.73;3.75;;;7.50;99.90;;;;;;6185840;23;20203;-76
2023/04/25 04:02:09;;;;;;;20.27;5.38;;;7.60;99.90;;;;;;6186919;23;20195;-76
2023/04/25 04:04:37;;;;;;;11.82;5.03;;;7.50;99.90;;;;;;6186268;23;20239;-76
2023/04/25 04:07:04;;;;;;;20.80;5.22;;;7.50;99.90;;;;;;6186786;23;20198;-75
2023/04/25 04:09:31;;;;;;;15.52;4.47;;;7.40;99.90;;;;;;6185636;23;20272;-76
2023/04/25 04:11:58;;;;;;;16.20;5.28;;;7.40;99.90;;;;;;6188334;23;20202;-76
2023/04/25 04:14:27;;;;;;;18.63;5.43;;;7.30;99.90;;;;;;6188020;23;20266;-76
2023/04/25 04:16:54;;;;;;;20.10;4.15;;;7.20;99.90;;;;;;6189141;23;20170;-75
2023/04/25 04:19:21;;;;;;;21.17;4.35;;;7.20;99.90;;;;;;6188343;23;20206;-75
2023/04/25 04:21:48;;;;;;;13.57;5.78;;;7.20;99.90;;;;;;6188165;23;20240;-75
2023/04/25 04:24:16;;;;;;;20.02;4.80;;;7.10;99.90;;;;;;6188520;23;20237;-77
2023/04/25 04:26:44;;;;;;;20.67;5.35;;;7.10;99.90;;;;;;6184607;23;20189;-75
2023/04/25 04:29:12;;;;;;;11.52;4.35;;;7.00;99.90;;;;;;6186552;23;20209;-75
2023/04/25 04:31:40;;;;;;;16.45;5.15;;;7.10;99.90;;;;;;6188494;23;20226;-75
2023/04/25 04:34:07;;;;;;;20.80;4.75;;;7.10;99.90;;;;;;6187522;23;20263;-76
2023/04/25 04:36:34;;;;;;;19.35;4.63;;;7.10;99.90;;;;;;6191215;23;20212;-74
2023/04/25 04:39:03;;;;;;;12.75;4.38;;;7.20;99.90;;;;;;6192815;23;20203;-74
2023/04/25 04:41:30;;;;;;;12.68;4.18;;;7.30;99.90;;;;;;6198146;23;20165;-74
2023/04/25 04:43:56;;;;;;;20.48;5.03;;;7.30;99.90;;;;;;6199743;23;20163;-74
2023/04/25 04:46:24;;;;;;;14.77;3.97;;;7.40;99.90;;;;;;6200917;23;20167;-75
2023/04/25 04:48:53;;;;;;;15.55;4.40;;;7.50;99.90;;;;;;6193323;23;20289;-75
2023/04/25 04:51:20;;;;;;;11.02;4.10;;;7.50;99.90;;;;;;6186796;23;20168;-77
2023/04/25 04:53:47;;;;;;;17.58;4.20;;;7.40;99.90;;;;;;6186467;23;20301;-76
2023/04/25 04:56:15;;;;;;;14.93;4.40;;;7.50;99.90;;;;;;6186323;23;20303;-75
2023/04/25 04:58:42;;;;;;;26.00;3.88;;;7.50;99.90;;;;;;6186133;23;20263;-75
2023/04/25 05:01:08;;;;;;;16.38;4.32;;;7.60;99.90;;;;;;6185743;23;20160;-76
2023/04/25 05:03:35;;;;;;;21.13;4.05;;;7.50;99.90;;;;;;6186677;23;20163;-76
2023/04/25 05:06:05;;;;;;;22.80;5.32;;;7.50;99.90;;;;;;6186023;23;20607;-74
2023/04/25 05:08:32;;;;;;;16.58;5.60;;;7.50;99.90;;;;;;6184115;23;20211;-73
2023/04/25 05:10:59;;;;;;;18.08;5.47;;;7.60;99.90;;;;;;6183809;23;20195;-75
2023/04/25 05:13:26;;;;;;;15.18;3.22;;;7.70;99.90;;;;;;6185578;23;20267;-74
2023/04/25 05:15:54;;;;;;;18.55;4.47;;;7.70;99.90;;;;;;6184726;23;20266;-74
2023/04/25 05:18:21;;;;;;;13.18;3.75;;;7.80;99.90;;;;;;6184722;23;20162;-76
2023/04/25 05:20:47;;;;;;;12.43;3.95;;;7.80;99.90;;;;;;6185396;23;20164;-74
2023/04/25 05:23:16;;;;;;;7.38;3.30;;;7.80;99.90;;;;;;6186634;23;20168;-75
2023/04/25 05:25:43;;;;;;;16.38;6.13;;;7.90;99.90;;;;;;6185904;23;20220;-74
2023/04/25 05:28:10;;;;;;;13.85;4.32;;;8.00;99.90;;;;;;6186115;23;20263;-75
2023/04/25 05:30:37;;;;;;;11.98;3.92;;;8.00;99.90;;;;;;6190932;23;20212;-76
2023/04/25 05:33:05;;;;;;;15.50;3.40;;;8.10;99.90;;;;;;6186687;23;20194;-77
2023/04/25 05:35:32;;;;;;;11.38;4.10;;;8.00;99.90;;;;;;6185694;23;20160;-78
2023/04/25 05:38:00;;;;;;;11.77;3.35;;;8.10;99.90;;;;;;6186304;23;20279;-75
2023/04/25 05:40:28;;;;;;;9.90;3.85;;;8.10;99.90;;;;;;6185619;23;20279;-78
2023/04/25 05:42:55;;;;;;;12.98;3.55;;;8.20;99.90;;;;;;6185738;23;20230;-76
2023/04/25 05:45:22;;;;;;;13.85;3.85;;;8.30;99.90;;;;;;6186259;23;20168;-76
2023/04/25 05:47:50;;;;;;;18.88;4.97;;;8.30;99.90;;;;;;6185739;23;20164;-75
2023/04/25 05:50:17;;;;;;;10.60;4.25;;;8.30;99.90;;;;;;6185742;23;20736;-76
2023/04/25 05:52:44;;;;;;;16.13;4.78;;;8.30;99.90;;;;;;6185426;23;20620;-76
2023/04/25 05:55:11;;;;;;;20.55;6.53;;;8.10;99.90;;;;;;6185427;23;20210;-74
2023/04/25 05:57:41;;;;;;;15.27;6.50;;;8.20;99.90;;;;;;6185606;23;20643;-77
2023/04/25 06:00:09;;;;;;;12.50;3.63;;;8.70;99.90;;;;;;6185661;23;20258;-75
2023/04/25 06:02:36;;;;;;;11.93;2.92;;;9.40;99.90;;;;;;6186579;23;20278;-77
2023/04/25 06:05:04;;;;;;;10.35;2.72;;;10.60;99.90;;;;;;6185936;23;20249;-77
2023/04/25 06:07:32;;;;;;;10.13;2.55;;;12.00;99.90;;;;;;6187007;23;20171;-77
2023/04/25 06:10:00;;;;;;;11.80;3.53;;;13.30;99.90;;;;;;6185432;23;20204;-75
2023/04/25 06:12:28;;;;;;;9.85;2.35;;;14.20;97.90;;;;;;6185750;23;20160;-77
2023/04/25 06:14:56;;;;;;;5.68;3.22;;;15.00;94.30;;;;;;6185343;23;20703;-74
2023/04/25 06:17:23;;;;;;;7.03;2.83;;;15.70;92.80;;;;;;6185115;23;20218;-75
2023/04/25 06:19:50;;;;;;;5.20;2.57;;;15.80;91.10;;;;;;6184239;23;20287;-75
2023/04/25 06:22:20;;;;;;;7.17;4.00;;;16.00;90.60;;;;;;6185647;23;20388;-77
2023/04/25 06:24:47;;;;;;;12.60;3.30;;;16.40;90.10;;;;;;6185359;23;20418;-77
2023/04/25 06:27:14;;;;;;;11.57;3.50;;;16.90;88.70;;;;;;6185506;23;20893;-75
2023/04/25 06:29:41;;;;;;;7.33;2.47;;;16.50;87.40;;;;;;6184749;23;20501;-75
2023/04/25 06:32:09;;;;;;;10.90;3.00;;;16.50;86.70;;;;;;6184929;23;20426;-74
2023/04/25 06:34:36;;;;;;;7.80;3.00;;;16.70;86.00;;;;;;6184500;23;20432;-74
2023/04/25 06:37:03;;;;;;;10.03;2.83;;;17.10;85.80;;;;;;6184923;23;20482;-74
2023/04/25 06:39:30;;;;;;;7.20;3.10;;;17.50;83.80;;;;;;6183541;23;20432;-73
2023/04/25 06:41:57;;;;;;;12.53;3.60;;;17.90;83.10;;;;;;6183489;23;20433;-75
2023/04/25 06:44:25;;;;;;;4.77;2.23;;;18.70;81.40;;;;;;6183126;23;20446;-73
2023/04/25 06:46:52;;;;;;;6.57;2.97;;;19.20;79.40;;;;;;6183315;23;20400;-73
2023/04/25 06:49:21;;;;;;;8.30;2.93;;;18.30;78.20;;;;;;6182819;23;20467;-71
2023/04/25 06:51:48;;;;;;;10.67;4.13;;;17.30;79.70;;;;;;6182116;23;20452;-74
2023/04/25 06:54:15;;;;;;;6.50;3.28;;;16.20;81.60;;;;;;6182256;23;20434;-75
2023/04/25 06:56:42;;;;;;;11.00;3.70;;;15.30;83.60;;;;;;6183384;23;20161;-74
2023/04/25 06:59:09;;;;;;;7.65;2.40;;;14.40;86.20;;;;;;6184482;23;20196;-74
2023/04/25 07:01:36;;;;;;;9.05;2.90;;;13.60;88.60;;;;;;6184224;23;20168;-74
2023/04/25 07:04:03;;;;;;;12.70;3.45;;;13.10;89.70;;;;;;6185496;23;20164;-74
2023/04/25 07:06:31;;;;;;;8.02;2.30;;;12.30;90.20;;;;;;6184657;23;20167;-74
2023/04/25 07:08:58;;;;;;;9.25;2.42;;;11.80;91.50;;;;;;6185388;23;20198;-74
2023/04/25 07:11:25;;;;;;;6.20;3.30;;;11.40;93.10;;;;;;6184365;23;20652;-73
2023/04/25 07:13:52;;;;;;;14.05;4.35;;;10.90;94.40;;;;;;6185691;23;20189;-73
2023/04/25 07:16:19;;;;;;;12.60;3.40;;;10.60;95.60;;;;;;6187288;23;20161;-74
2023/04/25 07:18:45;;;;;;;9.10;2.60;;;10.40;97.30;;;;;;6186459;23;20251;-75
2023/04/25 07:21:13;;;;;;;6.82;1.75;;;10.30;97.70;;;;;;6186484;23;20215;-74
2023/04/25 07:23:42;;;;;;;11.52;3.35;;;10.00;97.60;;;;;;6186788;23;20196;-75
2023/04/25 07:26:09;;;;;;;11.65;2.30;;;10.00;97.50;;;;;;6191629;23;20165;-74
2023/04/25 07:28:35;;;;;;;13.85;2.75;;;10.30;98.60;;;;;;6186145;23;20240;-76
2023/04/25 07:31:03;;;;;;;9.00;3.33;;;10.50;96.80;;;;;;6186598;23;20162;-75
2023/04/25 07:33:30;;;;;;;5.13;1.90;;;10.70;95.80;;;;;;6186571;23;20173;-73
2023/04/25 07:35:57;;;;;;;10.52;2.88;;;11.60;95.40;;;;;;6186845;23;20164;-74
2023/04/25 07:38:24;;;;;;;8.43;2.65;;;13.10;93.40;;;;;;6186836;23;20215;-75
2023/04/25 07:40:53;;;;;;;6.90;2.40;;;14.90;91.00;;;;;;6185676;23;20170;-74
2023/04/25 07:43:20;;;;;;;8.10;2.37;;;16.80;85.50;;;;;;6187016;23;20395;-75
2023/04/25 07:45:47;;;;;;;9.20;3.13;;;16.90;79.60;;;;;;6186640;23;20415;-75
2023/04/25 07:48:18;;;;;;;7.70;4.40;;;17.00;80.40;;;;;;6186851;23;20469;-75
2023/04/25 07:50:45;;;;;;;10.47;2.37;;;17.50;79.30;;;;;;6185538;23;20856;-75
2023/04/25 07:53:12;;;;;;;6.43;2.87;;;18.10;76.90;;;;;;6186635;23;20953;-74
2023/04/25 07:55:40;;;;;;;10.57;4.30;;;18.00;75.30;;;;;;6186625;23;20435;-74
2023/04/25 07:58:08;;;;;;;8.03;3.10;;;18.40;75.10;;;;;;6185930;23;20567;-76
2023/04/25 08:00:35;;;;;;;6.27;1.97;;;19.50;74.80;;;;;;6185995;23;20498;-74
2023/04/25 08:03:02;;;;;;;9.53;2.30;;;19.70;71.70;;;;;;6187345;23;20392;-73
2023/04/25 08:05:29;;;;;;;4.90;1.90;;;19.00;69.20;;;;;;6186651;23;20395;-72
2023/04/25 08:07:56;;;;;;;8.53;3.07;;;17.70;70.90;;;;;;6186275;23;20495;-73
2023/04/25 08:10:23;;;;;;;9.00;2.72;;;16.20;74.60;;;;;;6185867;23;20459;-73
2023/04/25 08:12:50;;;;;;;8.73;3.25;;;15.20;77.10;;;;;;6186152;23;20663;-74
2023/04/25 08:15:19;;;;;;;8.18;2.60;;;14.20;79.00;;;;;;6186271;23;20271;-75
2023/04/25 08:17:46;;;;;;;9.98;2.80;;;13.50;81.10;;;;;;6186135;23;20198;-75
2023/04/25 08:20:13;;;;;;;10.88;2.55;;;12.80;83.40;;;;;;6185309;23;20198;-74
2023/04/25 08:22:40;;;;;;;10.40;2.88;;;12.40;86.10;;;;;;6186279;23;20159;-75
2023/04/25 08:25:08;;;;;;;9.93;2.67;;;11.80;87.90;;;;;;6184505;23;20197;-76
2023/04/25 08:27:35;;;;;;;9.65;2.05;;;11.50;90.70;;;;;;6185758;23;20628;-75
2023/04/25 08:30:02;;;;;;;12.43;2.67;;;11.10;92.60;;;;;;6184725;23;20206;-74
2023/04/25 08:32:31;;;;;;;10.50;2.92;;;10.90;96.80;;;;;;6185902;23;20165;-75
2023/04/25 08:34:59;;;;;;;8.68;3.53;;;10.70;98.70;;;;;;6185561;23;20185;-74
2023/04/25 08:37:26;;;;;;;6.55;2.30;;;10.40;97.60;;;;;;6185271;23;20165;-74
2023/04/25 08:39:53;;;;;;;6.35;2.03;;;10.20;97.50;;;;;;6184860;23;20236;-75
2023/04/25 08:42:22;;;;;;;5.00;1.52;;;10.20;97.50;;;;;;6186033;23;20170;-76
2023/04/25 08:44:49;;;;;;;7.82;1.45;;;10.30;96.90;;;;;;6185496;23;20472;-76
2023/04/25 08:47:16;;;;;;;5.35;2.35;;;10.30;95.30;;;;;;6186530;23;20241;-75
2023/04/25 08:49:47;;;;;;;6.47;1.55;;;10.30;95.80;;;;;;6185175;23;20518;-75
2023/04/25 08:52:14;;;;;;;4.40;2.00;;;10.40;94.80;;;;;;6186478;23;20164;-74
2023/04/25 08:54:44;;;;;;;5.05;1.33;;;10.60;94.00;;;;;;6185657;23;20216;-74
2023/04/25 08:57:11;;;;;;;4.22;1.70;;;10.50;93.80;;;;;;6186562;23;20204;-74
2023/04/25 08:59:55;;;;;;;8.98;2.00;;;10.60;93.70;;;;;;6185053;23;20714;-76
2023/04/25 09:02:34;;;;;;;10.50;1.83;;;10.90;93.40;;;;;;6186643;23;20165;-75
2023/04/25 09:05:04;;;;;;;4.95;2.83;;;11.30;92.10;;;;;;6186546;23;20161;-75
2023/04/25 09:07:36;;;;;;;5.35;2.08;;;12.00;94.00;;;;;;6186210;23;20168;-75
2023/04/25 09:10:04;;;;;;;8.73;2.40;;;13.10;92.80;;;;;;6187584;23;20197;-74
2023/04/25 09:12:31;;;;;;;3.80;2.50;;;14.40;88.40;;;;;;6185732;23;20169;-73
2023/04/25 09:15:06;;;;;;;5.38;2.35;;;15.50;86.00;;;;;;6185101;23;20205;-74
2023/04/25 09:17:33;;;;;;;8.43;2.25;;;15.90;80.70;;;;;;6185928;23;20217;-74
2023/04/25 09:20:09;;;;;;;4.97;1.97;;;16.20;79.50;;;;;;6184349;23;20207;-74
2023/04/25 09:22:37;;;;;;;6.78;2.35;;;16.90;79.70;;;;;;6184837;23;20393;-76
2023/04/25 09:25:06;;;;;;;5.82;2.47;;;16.40;80.30;;;;;;6185360;23;20164;-73
2023/04/25 09:27:34;;;;;;;10.90;2.58;;;15.50;78.20;;;;;;6185777;23;20189;-73
2023/04/25 09:30:01;;;;;;;11.30;2.65;;;14.40;81.10;;;;;;6183906;23;20499;-75
2023/04/25 09:32:28;;;;;;;4.93;2.67;;;13.90;82.60;;;;;;6186398;23;20196;-75
2023/04/25 09:34:57;;;;;;;6.38;2.20;;;13.50;84.70;;;;;;6185916;23;20234;-74
2023/04/25 09:37:27;;;;;;;7.82;1.85;;;13.10;85.70;;;;;;6185131;23;20169;-76
2023/04/25 09:39:56;;;;;;;3.63;1.65;;;12.70;86.40;;;;;;6184753;23;20290;-74
2023/04/25 09:42:26;;;;;;;6.50;1.77;;;12.40;90.00;;;;;;6185399;23;20176;-72
2023/04/25 09:44:56;;;;;;;12.52;2.83;;;12.50;90.80;;;;;;6184368;23;20170;-75
2023/04/25 09:47:25;;;;;;;6.10;1.95;;;12.40;91.30;;;;;;6185105;23;20532;-73
2023/04/25 09:49:53;;;;;;;5.22;2.20;;;12.00;92.50;;;;;;6184645;23;20294;-74
2023/04/25 09:52:21;;;;;;;13.93;4.80;;;12.40;93.20;;;;;;6185101;23;20207;-74
2023/04/25 09:54:51;;;;;;;4.35;1.60;;;12.60;92.30;;;;;;6185206;23;20184;-75
2023/04/25 09:57:19;;;;;;;7.30;2.08;;;12.80;93.10;;;;;;6184182;23;20199;-76
2023/04/25 09:59:48;;;;;;;7.40;1.80;;;13.10;91.70;;;;;;6183150;23;20733;-72
2023/04/25 10:02:17;;;;;;;3.92;2.58;;;13.50;91.10;;;;;;6185205;23;20263;-75
2023/04/25 10:04:48;;;;;;;7.50;2.60;;;13.80;91.20;;;;;;6185230;23;20161;-75
2023/04/25 10:07:16;;;;;;;9.25;3.22;;;14.70;90.20;;;;;;6185408;23;20244;-74
2023/04/25 10:09:45;;;;;;;13.50;2.42;;;15.60;84.50;;;;;;6183346;23;20206;-75
2023/04/25 10:12:13;;;;;;;7.53;2.30;;;16.10;81.50;;;;;;6184888;23;20187;-75
2023/04/25 10:14:42;;;;;;;6.22;2.35;;;15.90;77.50;;;;;;6184968;23;20776;-74
2023/04/25 10:17:11;;;;;;;9.40;2.75;;;15.80;78.30;;;;;;6185323;23;20322;-75
2023/04/25 10:19:39;;;;;;;4.30;1.73;;;16.10;76.00;;;;;;6184217;23;20215;-76
2023/04/25 10:22:12;;;;;;;7.97;2.00;;;16.00;74.60;;;;;;6185298;23;20246;-76
2023/04/25 10:24:40;;;;;;;4.88;1.60;;;16.40;75.20;;;;;;6158755;23;20192;-73
2023/04/25 10:27:08;;;;;;;3.28;1.67;;;15.80;75.90;;;;;;6184690;23;20470;-74
2023/04/25 10:29:36;;;;;;;7.18;1.88;;;15.30;76.90;;;;;;6183882;23;20246;-75
2023/04/25 10:32:03;;;;;;;8.65;3.03;;;15.20;78.80;;;;;;6185152;23;20184;-76
2023/04/25 10:34:46;;;;;;;7.05;2.40;;;15.00;79.20;;;;;;6185070;23;20196;-74
2023/04/25 10:37:14;;;;;;;8.38;1.90;;;14.60;80.50;;;;;;6184954;23;20166;-74
2023/04/25 10:39:42;;;;;;;7.93;1.98;;;14.30;83.10;;;;;;6183433;23;20605;-74
2023/04/25 10:42:09;;;;;;;9.45;2.65;;;13.90;82.30;;;;;;6184726;23;20168;-74
2023/04/25 10:44:39;;;;;;;6.93;2.33;;;13.50;83.40;;;;;;6184950;23;20203;-74
2023/04/25 10:47:08;;;;;;;8.02;1.90;;;13.20;85.40;;;;;;6184871;23;20165;-73
2023/04/25 10:49:36;;;;;;;4.30;1.65;;;13.20;86.40;;;;;;6185538;23;20207;-75
2023/04/25 10:52:19;;;;;;;8.70;1.65;;;13.10;87.20;;;;;;6187126;23;20215;-76
2023/04/25 10:54:52;;;;;;;6.65;1.50;;;13.40;87.00;;;;;;6160099;23;20245;-74
2023/04/25 10:57:33;;;;;;;3.80;1.90;;;13.40;87.30;;;;;;6186726;23;20244;-75
2023/04/25 11:00:10;;;;;;;5.72;1.67;;;13.70;87.60;;;;;;6185412;23;20211;-73
2023/04/25 11:02:46;;;;;;;5.80;2.72;;;14.10;88.00;;;;;;6159863;23;20179;-74
2023/04/25 11:05:29;;;;;;;5.80;1.80;;;14.20;86.90;;;;;;6188751;23;20160;-75
2023/04/25 11:07:57;;;;;;;13.43;3.58;;;14.10;87.20;;;;;;6186724;23;20171;-74
2023/04/25 11:10:26;;;;;;;7.47;2.50;;;14.10;86.60;;;;;;6186054;23;20282;-74
2023/04/25 11:12:53;;;;;;;5.07;2.22;;;14.30;86.70;;;;;;6186374;23;20160;-75
2023/04/25 11:15:22;;;;;;;4.47;1.80;;;14.50;85.70;;;;;;6186579;23;20188;-77
2023/04/25 11:17:48;;;;;;;5.45;2.08;;;14.50;85.50;;;;;;6186951;23;20165;-74
2023/04/25 11:20:15;;;;;;;4.50;1.70;;;14.80;85.60;;;;;;6186759;23;20204;-74
2023/04/25 11:22:44;;;;;;;6.72;1.92;;;15.10;85.70;;;;;;6186907;23;20161;-74
2023/04/25 11:25:13;;;;;;;4.13;2.10;;;15.20;83.50;;;;;;6186684;23;20243;-76
2023/04/25 11:27:51;;;;;;;4.95;1.70;;;15.00;83.50;;;;;;6186647;23;20263;-72
2023/04/25 11:30:18;;;;;;;9.52;2.40;;;14.60;86.50;;;;;;6186138;23;20254;-74
2023/04/25 11:32:48;;;;;;;8.55;2.30;;;13.70;90.50;;;;;;6186506;23;20168;-74
2023/04/25 11:35:15;;;;;;;8.40;2.85;;;12.90;91.60;;;;;;6186806;23;20268;-74
2023/04/25 11:37:44;;;;;;;9.38;3.10;;;11.70;94.40;;;;;;6186293;23;20563;-73
2023/04/25 11:40:12;;;;;;;11.45;3.72;;;10.90;99.00;;;;;;6185868;23;20585;-73
2023/04/25 11:42:39;;;;;;;11.88;2.00;;;10.30;99.90;;;;;;6186517;23;20165;-73
2023/04/25 11:45:07;;;;;;;7.25;2.33;;;9.60;99.90;;;;;;6186671;23;20167;-72
2023/04/25 11:47:35;;;;;;;4.85;2.17;;;9.30;99.90;;;;;;6186759;23;20183;-72
2023/04/25 11:50:05;;;;;;;6.57;2.30;;;9.20;99.90;;;;;;6186052;23;20200;-74
2023/04/25 11:52:39;;;;;;;8.52;2.03;;;9.40;99.90;;;;;;6187080;23;20243;-74
2023/04/25 11:55:08;;;;;;;3.83;2.20;;;9.70;99.90;;;;;;6186370;23;20262;-74
2023/04/25 11:57:36;;;;;;;8.18;2.40;;;10.00;99.90;;;;;;6186836;23;20223;-74
2023/04/25 12:00:11;;;;;;;8.55;4.00;;;10.30;99.90;;;;;;6185715;23;20208;-74
2023/04/25 12:02:54;;;;;;;7.95;2.90;;;10.60;99.90;;;;;;6186405;23;20173;-74
2023/04/25 12:05:26;;;;;;;6.03;2.10;;;10.90;99.90;;;;;;6186840;23;20607;-74
2023/04/25 12:07:54;;;;;;;7.10;2.80;;;11.10;99.90;;;;;;6188204;23;20169;-73
2023/04/25 12:10:22;;;;;;;6.97;1.58;;;11.50;98.80;;;;;;6186725;23;20239;-74
2023/04/25 12:12:49;;;;;;;6.07;1.67;;;11.10;98.10;;;;;;6186396;23;20172;-79
2023/04/25 12:15:19;;;;;;;3.10;1.20;;;11.20;98.80;;;;;;6188932;23;20220;-74
2023/04/25 12:17:58;;;;;;;7.43;2.20;;;10.90;97.30;;;;;;6186759;23;20184;-74
2023/04/25 12:20:26;;;;;;;4.43;1.80;;;11.00;98.80;;;;;;6185047;23;20259;-74
2023/04/25 12:22:54;;;;;;;5.15;1.83;;;11.30;98.10;;;;;;6185940;23;20251;-75
2023/04/25 12:25:38;;;;;;;5.97;1.40;;;11.40;98.80;;;;;;6185420;23;20592;-75
2023/04/25 12:28:15;;;;;;;5.40;2.58;;;11.60;96.30;;;;;;6186035;23;20188;-74
2023/04/25 12:30:57;;;;;;;6.25;2.63;;;11.50;94.10;;;;;;6184730;23;20171;-75
2023/04/25 12:33:24;;;;;;;6.25;2.65;;;11.50;93.90;;;;;;6186130;23;20166;-73
2023/04/25 12:35:53;;;;;;;7.63;2.75;;;11.50;94.30;;;;;;6185543;23;20195;-76
2023/04/25 12:38:24;;;;;;;9.43;1.85;;;11.50;93.80;;;;;;6185987;23;20236;-73
2023/04/25 12:40:51;;;;;;;4.85;2.30;;;11.50;93.00;;;;;;6185226;23;20677;-77
2023/04/25 12:43:18;;;;;;;9.02;1.90;;;11.60;93.10;;;;;;6185908;23;20654;-74
2023/04/25 12:45:45;;;;;;;3.92;2.13;;;11.80;92.40;;;;;;6186036;23;20164;-75
2023/04/25 12:48:12;;;;;;;6.90;2.20;;;11.80;92.20;;;;;;6185134;23;20510;-76
2023/04/25 12:50:39;;;;;;;5.60;2.47;;;11.60;92.20;;;;;;6185477;23;20188;-73